Time,TemperatureF,DewpointF,PressureIn,WindDirection,WindDirectionDegrees,WindSpeedMPH,WindSpeedGustMPH,Humidity,HourlyPrecipIn,Conditions,Clouds,dailyrainin,SoftwareType,DateUTC
2013-01-23 00:03:00,20.8,-0.9,30.29,SSE,148,0.0,0.0,38,0.00,,,0.00,Wunderground v.1.15,2013-01-23 05:03:00,
2013-01-23 00:08:00,20.7,-0.4,30.29,SSE,148,0.0,0.0,39,0.00,,,0.00,Wunderground v.1.15,2013-01-23 05:08:00,
2013-01-23 00:09:00,20.6,0.1,30.29,SSE,148,0.0,0.0,40,0.00,,,0.00,Wunderground v.1.15,2013-01-23 05:09:00,
2013-01-23 00:10:00,20.6,0.6,30.29,SSE,148,0.0,0.0,41,0.00,,,0.00,Wunderground v.1.15,2013-01-23 05:10:00,
2013-01-23 00:15:00,20.6,0.1,30.29,SSE,148,0.0,0.0,40,0.00,,,0.00,Wunderground v.1.15,2013-01-23 05:15:00,
2013-01-23 00:21:00,20.4,-0.1,30.29,SE,146,0.0,1.0,40,0.00,,,0.00,Wunderground v.1.15,2013-01-23 05:21:00,
2013-01-23 00:27:00,20.3,-0.2,30.30,SE,141,0.0,1.0,40,0.00,,,0.00,Wunderground v.1.15,2013-01-23 05:27:00,
2013-01-23 00:32:00,20.1,-0.4,30.30,SE,141,0.0,0.0,40,0.00,,,0.00,Wunderground v.1.15,2013-01-23 05:32:00,
2013-01-23 00:37:00,19.9,-0.6,30.30,SE,141,0.0,1.0,40,0.00,,,0.00,Wunderground v.1.15,2013-01-23 05:37:00,
2013-01-23 00:43:00,19.8,0.9,30.30,SE,141,0.0,0.0,43,0.00,,,0.00,Wunderground v.1.15,2013-01-23 05:43:00,
2013-01-23 00:48:00,19.6,-0.3,30.30,SE,141,0.0,0.0,41,0.00,,,0.00,Wunderground v.1.15,2013-01-23 05:48:00,
2013-01-23 00:54:00,19.4,0.0,30.30,SE,141,0.0,1.0,42,0.00,,,0.00,Wunderground v.1.15,2013-01-23 05:54:00,
2013-01-23 01:00:00,19.2,-0.7,30.30,SE,135,0.0,0.0,41,0.00,,,0.00,Wunderground v.1.15,2013-01-23 06:00:00,
2013-01-23 01:05:00,19.0,-0.4,30.30,SE,135,0.0,0.0,42,0.00,,,0.00,Wunderground v.1.15,2013-01-23 06:05:00,
2013-01-23 01:11:00,18.9,1.5,30.30,SE,135,0.0,0.0,46,0.00,,,0.00,Wunderground v.1.15,2013-01-23 06:11:00,
2013-01-23 01:17:00,18.7,0.8,30.30,SE,135,0.0,0.0,45,0.00,,,0.00,Wunderground v.1.15,2013-01-23 06:17:00,
2013-01-23 01:22:00,18.6,0.7,30.30,SE,135,0.0,0.0,45,0.00,,,0.00,Wunderground v.1.15,2013-01-23 06:22:00,
2013-01-23 01:28:00,18.3,0.0,30.30,SE,135,0.0,0.0,44,0.00,,,0.00,Wunderground v.1.15,2013-01-23 06:28:00,
2013-01-23 01:33:00,18.2,0.4,30.31,SE,135,0.0,0.0,45,0.00,,,0.00,Wunderground v.1.15,2013-01-23 06:33:00,
2013-01-23 01:39:00,18.0,1.1,30.31,SE,135,0.0,0.0,47,0.00,,,0.00,Wunderground v.1.15,2013-01-23 06:39:00,
2013-01-23 01:44:00,17.9,1.0,30.31,SE,135,0.0,0.0,47,0.00,,,0.00,Wunderground v.1.15,2013-01-23 06:44:00,
2013-01-23 01:50:00,17.6,1.2,30.31,SE,135,0.0,0.0,48,0.00,,,0.00,Wunderground v.1.15,2013-01-23 06:50:00,
2013-01-23 01:56:00,17.4,1.9,30.31,SE,135,0.0,0.0,50,0.00,,,0.00,Wunderground v.1.15,2013-01-23 06:56:00,
2013-01-23 02:02:00,17.2,1.3,30.31,SE,135,0.0,0.0,49,0.00,,,0.00,Wunderground v.1.15,2013-01-23 07:02:00,
2013-01-23 02:07:00,17.0,2.0,30.31,SE,135,0.0,0.0,51,0.00,,,0.00,Wunderground v.1.15,2013-01-23 07:07:00,
2013-01-23 02:13:00,17.0,2.8,30.31,SE,135,0.0,0.0,53,0.00,,,0.00,Wunderground v.1.15,2013-01-23 07:13:00,
2013-01-23 02:19:00,17.0,2.0,30.31,SE,135,0.0,0.0,51,0.00,,,0.00,Wunderground v.1.15,2013-01-23 07:19:00,
2013-01-23 02:24:00,17.1,1.6,30.31,SE,135,0.0,0.0,50,0.00,,,0.00,Wunderground v.1.15,2013-01-23 07:24:00,
2013-01-23 02:30:00,17.2,1.3,30.31,SE,135,0.0,0.0,49,0.00,,,0.00,Wunderground v.1.15,2013-01-23 07:30:00,
2013-01-23 02:35:00,17.4,1.5,30.31,SE,135,0.0,0.0,49,0.00,,,0.00,Wunderground v.1.15,2013-01-23 07:35:00,
2013-01-23 02:41:00,17.6,1.2,30.31,SE,127,0.0,1.0,48,0.00,,,0.00,Wunderground v.1.15,2013-01-23 07:41:00,
2013-01-23 02:46:00,17.7,0.4,30.31,SE,127,0.0,1.0,46,0.00,,,0.00,Wunderground v.1.15,2013-01-23 07:46:00,
2013-01-23 02:52:00,17.9,1.0,30.30,SE,127,0.0,0.0,47,0.00,,,0.00,Wunderground v.1.15,2013-01-23 07:52:00,
2013-01-23 02:57:00,18.0,0.7,30.30,SE,127,0.0,0.0,46,0.00,,,0.00,Wunderground v.1.15,2013-01-23 07:57:00,
2013-01-23 03:03:00,18.1,0.3,30.30,SE,133,0.0,0.0,45,0.00,,,0.00,Wunderground v.1.15,2013-01-23 08:03:00,
2013-01-23 03:09:00,18.1,0.8,30.31,ESE,110,0.0,0.0,46,0.00,,,0.00,Wunderground v.1.15,2013-01-23 08:09:00,
2013-01-23 03:14:00,18.1,1.7,30.31,ESE,110,0.0,0.0,48,0.00,,,0.00,Wunderground v.1.15,2013-01-23 08:14:00,
2013-01-23 03:19:00,18.1,0.3,30.31,ESE,113,0.0,0.0,45,0.00,,,0.00,Wunderground v.1.15,2013-01-23 08:19:00,
2013-01-23 03:24:00,18.1,-0.7,30.31,ESE,113,0.0,0.0,43,0.00,,,0.00,Wunderground v.1.15,2013-01-23 08:24:00,
2013-01-23 03:29:00,18.1,-0.2,30.31,ESE,113,0.0,0.0,44,0.00,,,0.00,Wunderground v.1.15,2013-01-23 08:29:00,
2013-01-23 03:35:00,18.0,0.7,30.31,ESE,113,0.0,0.0,46,0.00,,,0.00,Wunderground v.1.15,2013-01-23 08:35:00,
2013-01-23 03:40:00,18.0,1.6,30.31,ESE,113,0.0,0.0,48,0.00,,,0.00,Wunderground v.1.15,2013-01-23 08:40:00,
2013-01-23 03:46:00,17.9,0.1,30.31,ESE,113,0.0,0.0,45,0.00,,,0.00,Wunderground v.1.15,2013-01-23 08:46:00,
2013-01-23 03:52:00,17.7,0.4,30.31,ESE,113,0.0,0.0,46,0.00,,,0.00,Wunderground v.1.15,2013-01-23 08:52:00,
2013-01-23 03:58:00,17.6,2.1,30.31,ESE,113,0.0,0.0,50,0.00,,,0.00,Wunderground v.1.15,2013-01-23 08:58:00,
2013-01-23 04:03:00,17.4,0.6,30.31,ESE,113,0.0,0.0,47,0.00,,,0.00,Wunderground v.1.15,2013-01-23 09:03:00,
2013-01-23 04:09:00,17.2,1.7,30.31,ESE,113,0.0,0.0,50,0.00,,,0.00,Wunderground v.1.15,2013-01-23 09:09:00,
2013-01-23 04:14:00,17.0,2.4,30.31,ESE,113,0.0,0.0,52,0.00,,,0.00,Wunderground v.1.15,2013-01-23 09:14:00,
2013-01-23 04:19:00,16.9,3.5,30.31,ESE,113,0.0,0.0,55,0.00,,,0.00,Wunderground v.1.15,2013-01-23 09:19:00,
2013-01-23 04:25:00,16.8,4.6,30.31,ESE,113,0.0,0.0,58,0.00,,,0.00,Wunderground v.1.15,2013-01-23 09:25:00,
2013-01-23 04:30:00,16.6,4.4,30.31,ESE,113,0.0,0.0,58,0.00,,,0.00,Wunderground v.1.15,2013-01-23 09:30:00,
2013-01-23 04:36:00,16.4,4.6,30.31,ESE,113,0.0,0.0,59,0.00,,,0.00,Wunderground v.1.15,2013-01-23 09:36:00,
2013-01-23 04:42:00,16.2,4.4,30.31,ESE,113,0.0,0.0,59,0.00,,,0.00,Wunderground v.1.15,2013-01-23 09:42:00,
2013-01-23 04:48:00,16.1,5.0,30.31,ESE,113,0.0,0.0,61,0.00,,,0.00,Wunderground v.1.15,2013-01-23 09:48:00,
2013-01-23 04:53:00,15.9,4.4,30.32,ESE,113,0.0,0.0,60,0.00,,,0.00,Wunderground v.1.15,2013-01-23 09:53:00,
2013-01-23 04:58:00,15.8,4.4,30.32,ESE,113,0.0,0.0,60,0.00,,,0.00,Wunderground v.1.15,2013-01-23 09:58:00,
2013-01-23 05:03:00,15.6,3.8,30.31,ESE,113,0.0,0.0,59,0.00,,,0.00,Wunderground v.1.15,2013-01-23 10:03:00,
2013-01-23 05:09:00,15.5,3.7,30.32,ESE,113,0.0,0.0,59,0.00,,,0.00,Wunderground v.1.15,2013-01-23 10:09:00,
2013-01-23 05:14:00,15.4,4.0,30.32,ESE,113,0.0,0.0,60,0.00,,,0.00,Wunderground v.1.15,2013-01-23 10:14:00,
2013-01-23 05:20:00,15.3,4.2,30.32,ESE,113,0.0,0.0,61,0.00,,,0.00,Wunderground v.1.15,2013-01-23 10:20:00,
2013-01-23 05:25:00,15.2,4.5,30.32,ESE,113,0.0,0.0,62,0.00,,,0.00,Wunderground v.1.15,2013-01-23 10:25:00,
2013-01-23 05:31:00,15.1,4.4,30.32,ESE,113,0.0,0.0,62,0.00,,,0.00,Wunderground v.1.15,2013-01-23 10:31:00,
2013-01-23 05:37:00,14.9,4.9,30.32,ESE,113,0.0,0.0,64,0.00,,,0.00,Wunderground v.1.15,2013-01-23 10:37:00,
2013-01-23 05:42:00,14.8,3.8,30.33,ESE,113,0.0,0.0,61,0.00,,,0.00,Wunderground v.1.15,2013-01-23 10:42:00,
2013-01-23 05:47:00,14.7,4.4,30.33,ESE,113,0.0,0.0,63,0.00,,,0.00,Wunderground v.1.15,2013-01-23 10:47:00,
2013-01-23 05:53:00,14.5,4.9,30.33,ESE,113,0.0,0.0,65,0.00,,,0.00,Wunderground v.1.15,2013-01-23 10:53:00,
2013-01-23 05:58:00,14.3,5.0,30.33,ESE,113,0.0,0.0,66,0.00,,,0.00,Wunderground v.1.15,2013-01-23 10:58:00,
2013-01-23 06:03:00,14.2,4.9,30.33,ESE,113,0.0,0.0,66,0.00,,,0.00,Wunderground v.1.15,2013-01-23 11:03:00,
2013-01-23 06:09:00,14.1,5.5,30.33,ESE,113,0.0,0.0,68,0.00,,,0.00,Wunderground v.1.15,2013-01-23 11:09:00,
2013-01-23 06:15:00,14.0,5.4,30.33,ESE,113,0.0,0.0,68,0.00,,,0.00,Wunderground v.1.15,2013-01-23 11:15:00,
2013-01-23 06:20:00,13.8,5.5,30.33,ESE,113,0.0,0.0,69,0.00,,,0.00,Wunderground v.1.15,2013-01-23 11:20:00,
2013-01-23 06:26:00,13.7,5.4,30.34,ESE,113,0.0,0.0,69,0.00,,,0.00,Wunderground v.1.15,2013-01-23 11:26:00,
2013-01-23 06:32:00,13.6,5.3,30.34,ESE,113,0.0,0.0,69,0.00,,,0.00,Wunderground v.1.15,2013-01-23 11:32:00,
2013-01-23 06:37:00,13.5,5.5,30.34,ESE,113,0.0,0.0,70,0.00,,,0.00,Wunderground v.1.15,2013-01-23 11:37:00,
2013-01-23 06:42:00,13.4,5.4,30.34,ESE,113,0.0,0.0,70,0.00,,,0.00,Wunderground v.1.15,2013-01-23 11:42:00,
2013-01-23 06:48:00,13.3,5.3,30.34,ESE,113,0.0,0.0,70,0.00,,,0.00,Wunderground v.1.15,2013-01-23 11:48:00,
2013-01-23 06:53:00,13.3,5.6,30.35,ESE,113,0.0,0.0,71,0.00,,,0.00,Wunderground v.1.15,2013-01-23 11:53:00,
2013-01-23 06:58:00,13.2,6.2,30.34,ESE,113,0.0,0.0,73,0.00,,,0.00,Wunderground v.1.15,2013-01-23 11:58:00,
2013-01-23 07:03:00,13.1,6.4,30.35,ESE,113,0.0,0.0,74,0.00,,,0.00,Wunderground v.1.15,2013-01-23 12:03:00,
2013-01-23 07:09:00,13.1,6.7,30.35,ESE,113,0.0,0.0,75,0.00,,,0.00,Wunderground v.1.15,2013-01-23 12:09:00,
2013-01-23 07:15:00,13.1,7.0,30.35,ESE,113,0.0,0.0,76,0.00,,,0.00,Wunderground v.1.15,2013-01-23 12:15:00,
2013-01-23 07:20:00,13.1,7.0,30.35,ESE,113,0.0,0.0,76,0.00,,,0.00,Wunderground v.1.15,2013-01-23 12:20:00,
2013-01-23 07:26:00,13.0,6.9,30.35,ESE,113,0.0,0.0,76,0.00,,,0.00,Wunderground v.1.15,2013-01-23 12:26:00,
2013-01-23 07:31:00,12.9,6.8,30.35,ESE,113,0.0,0.0,76,0.00,,,0.00,Wunderground v.1.15,2013-01-23 12:31:00,
2013-01-23 07:37:00,12.8,6.9,30.35,ESE,113,0.0,0.0,77,0.00,,,0.00,Wunderground v.1.15,2013-01-23 12:37:00,
2013-01-23 07:42:00,12.8,6.9,30.35,ESE,113,0.0,0.0,77,0.00,,,0.00,Wunderground v.1.15,2013-01-23 12:42:00,
2013-01-23 07:48:00,12.7,7.1,30.35,ESE,113,0.0,0.0,78,0.00,,,0.00,Wunderground v.1.15,2013-01-23 12:48:00,
2013-01-23 07:53:00,12.7,7.1,30.35,ESE,113,0.0,0.0,78,0.00,,,0.00,Wunderground v.1.15,2013-01-23 12:53:00,
2013-01-23 07:58:00,12.9,7.9,30.35,ESE,113,0.0,0.0,80,0.00,,,0.00,Wunderground v.1.15,2013-01-23 12:58:00,
2013-01-23 08:04:00,13.2,7.9,30.35,ESE,113,0.0,0.0,79,0.00,,,0.00,Wunderground v.1.15,2013-01-23 13:04:00,
2013-01-23 08:09:00,13.3,8.0,30.35,ESE,113,0.0,0.0,79,0.00,,,0.00,Wunderground v.1.15,2013-01-23 13:09:00,
2013-01-23 08:14:00,13.5,8.2,30.36,ESE,113,0.0,0.0,79,0.00,,,0.00,Wunderground v.1.15,2013-01-23 13:14:00,
2013-01-23 08:19:00,13.8,8.2,30.36,ESE,113,0.0,0.0,78,0.00,,,0.00,Wunderground v.1.15,2013-01-23 13:19:00,
2013-01-23 08:25:00,14.3,8.4,30.36,ESE,113,0.0,0.0,77,0.00,,,0.00,Wunderground v.1.15,2013-01-23 13:25:00,
2013-01-23 08:30:00,14.6,9.0,30.35,ESE,113,0.0,0.0,78,0.00,,,0.00,Wunderground v.1.15,2013-01-23 13:30:00,
2013-01-23 08:35:00,15.1,8.3,30.35,ESE,113,0.0,0.0,74,0.00,,,0.00,Wunderground v.1.15,2013-01-23 13:35:00,
2013-01-23 08:40:00,15.6,8.2,30.35,ESE,113,0.0,0.0,72,0.00,,,0.00,Wunderground v.1.15,2013-01-23 13:40:00,
2013-01-23 08:46:00,16.1,8.3,30.35,ESE,113,0.0,0.0,71,0.00,,,0.00,Wunderground v.1.15,2013-01-23 13:46:00,
2013-01-23 08:51:00,16.5,8.7,30.36,ESE,113,0.0,0.0,71,0.00,,,0.00,Wunderground v.1.15,2013-01-23 13:51:00,
2013-01-23 08:58:00,17.5,8.4,30.36,SW,216,0.0,0.0,67,0.00,,,0.00,Wunderground v.1.15,2013-01-23 13:58:00,
2013-01-23 09:03:00,18.1,6.9,30.36,SW,218,0.0,0.0,61,0.00,,,0.00,Wunderground v.1.15,2013-01-23 14:03:00,
2013-01-23 09:09:00,18.8,6.8,30.36,WSW,239,0.0,2.0,59,0.00,,,0.00,Wunderground v.1.15,2013-01-23 14:09:00,
2013-01-23 09:15:00,19.5,6.3,30.36,WNW,284,0.0,0.0,56,0.00,,,0.00,Wunderground v.1.15,2013-01-23 14:15:00,
2013-01-23 09:20:00,20.0,6.8,30.36,WNW,284,0.0,0.0,56,0.00,,,0.00,Wunderground v.1.15,2013-01-23 14:20:00,
2013-01-23 09:25:00,20.6,4.4,30.36,North,1,0.0,1.0,49,0.00,,,0.00,Wunderground v.1.15,2013-01-23 14:25:00,
2013-01-23 09:31:00,21.2,4.1,30.36,North,1,0.0,0.0,47,0.00,,,0.00,Wunderground v.1.15,2013-01-23 14:31:00,
2013-01-23 09:36:00,21.7,4.5,30.35,NNW,342,0.0,0.0,47,0.00,,,0.00,Wunderground v.1.15,2013-01-23 14:36:00,
2013-01-23 09:42:00,22.1,1.9,30.35,NE,50,0.0,0.0,41,0.00,,,0.00,Wunderground v.1.15,2013-01-23 14:42:00,
2013-01-23 09:48:00,22.1,3.0,30.35,NE,53,0.0,1.0,43,0.00,,,0.00,Wunderground v.1.15,2013-01-23 14:48:00,
2013-01-23 09:54:00,22.3,3.7,30.36,NE,52,0.0,0.0,44,0.00,,,0.00,Wunderground v.1.15,2013-01-23 14:54:00,
2013-01-23 10:00:00,22.6,2.4,30.36,ENE,76,0.0,1.0,41,0.00,,,0.00,Wunderground v.1.15,2013-01-23 15:00:00,
2013-01-23 10:06:00,22.8,2.0,30.36,NE,50,0.0,2.0,40,0.00,,,0.00,Wunderground v.1.15,2013-01-23 15:06:00,
2013-01-23 10:11:00,23.2,2.4,30.36,ENE,57,1.0,2.0,40,0.00,,,0.00,Wunderground v.1.15,2013-01-23 15:11:00,
2013-01-23 10:17:00,23.8,1.8,30.36,NNE,32,1.0,2.0,38,0.00,,,0.00,Wunderground v.1.15,2013-01-23 15:17:00,
2013-01-23 10:23:00,24.4,1.2,30.35,NW,313,1.0,1.0,36,0.00,,,0.00,Wunderground v.1.15,2013-01-23 15:23:00,
2013-01-23 10:29:00,25.0,2.3,30.35,NNE,20,1.0,1.0,37,0.00,,,0.00,Wunderground v.1.15,2013-01-23 15:29:00,
2013-01-23 10:34:00,25.6,1.1,30.35,North,355,1.0,2.0,34,0.00,,,0.00,Wunderground v.1.15,2013-01-23 15:34:00,
2013-01-23 10:40:00,26.1,2.1,30.35,NW,318,1.0,1.0,35,0.00,,,0.00,Wunderground v.1.15,2013-01-23 15:40:00,
2013-01-23 10:45:00,26.6,0.7,30.34,NNE,21,1.0,2.0,32,0.00,,,0.00,Wunderground v.1.15,2013-01-23 15:45:00,
2013-01-23 10:51:00,27.1,0.4,30.35,SE,132,1.0,2.0,31,0.00,,,0.00,Wunderground v.1.15,2013-01-23 15:51:00,
2013-01-23 10:57:00,27.2,0.5,30.34,SW,224,2.0,2.0,31,0.00,,,0.00,Wunderground v.1.15,2013-01-23 15:57:00,
2013-01-23 11:03:00,27.1,-1.0,30.34,WNW,299,1.0,1.0,29,0.00,,,0.00,Wunderground v.1.15,2013-01-23 16:03:00,
2013-01-23 11:09:00,26.7,-1.4,30.34,NNE,15,1.0,1.0,29,0.00,,,0.00,Wunderground v.1.15,2013-01-23 16:09:00,
2013-01-23 11:14:00,26.8,-0.5,30.33,West,260,0.0,4.0,30,0.00,,,0.00,Wunderground v.1.15,2013-01-23 16:14:00,
2013-01-23 11:20:00,27.8,1.0,30.33,West,261,1.0,2.0,31,0.00,,,0.00,Wunderground v.1.15,2013-01-23 16:20:00,
2013-01-23 11:26:00,28.4,0.1,30.32,NNE,27,1.0,6.0,29,0.00,,,0.00,Wunderground v.1.15,2013-01-23 16:26:00,
2013-01-23 11:32:00,28.1,-0.9,30.32,East,86,1.0,4.0,28,0.00,,,0.00,Wunderground v.1.15,2013-01-23 16:32:00,
2013-01-23 11:37:00,28.0,-1.7,30.32,SE,140,1.0,4.0,27,0.00,,,0.00,Wunderground v.1.15,2013-01-23 16:37:00,
2013-01-23 11:43:00,27.9,-1.1,30.31,NE,50,1.0,1.0,28,0.00,,,0.00,Wunderground v.1.15,2013-01-23 16:43:00,
2013-01-23 11:48:00,28.5,0.2,30.31,West,262,1.0,1.0,29,0.00,,,0.00,Wunderground v.1.15,2013-01-23 16:48:00,
2013-01-23 11:54:00,29.0,-0.9,30.30,NNW,346,1.0,1.0,27,0.00,,,0.00,Wunderground v.1.15,2013-01-23 16:54:00,
2013-01-23 12:02:00,29.2,-1.5,30.29,NW,308,1.0,1.0,26,0.00,,,0.00,Wunderground v.1.15,2013-01-23 17:02:00,
2013-01-23 12:07:00,28.8,-1.8,30.29,NNW,344,1.0,3.0,26,0.00,,,0.00,Wunderground v.1.15,2013-01-23 17:07:00,
2013-01-23 12:13:00,29.6,-1.2,30.28,NW,320,1.0,2.0,26,0.00,,,0.00,Wunderground v.1.15,2013-01-23 17:13:00,
2013-01-23 12:19:00,29.8,-1.8,30.28,West,279,1.0,3.0,25,0.00,,,0.00,Wunderground v.1.15,2013-01-23 17:19:00,
2013-01-23 12:25:00,29.5,-2.1,30.27,NNE,19,1.0,6.0,25,0.00,,,0.00,Wunderground v.1.15,2013-01-23 17:25:00,
2013-01-23 12:30:00,29.4,-1.3,30.27,East,96,1.0,1.0,26,0.00,,,0.00,Wunderground v.1.15,2013-01-23 17:30:00,
2013-01-23 12:36:00,29.4,-2.2,30.26,NNE,18,1.0,6.0,25,0.00,,,0.00,Wunderground v.1.15,2013-01-23 17:36:00,
2013-01-23 12:42:00,29.3,-2.2,30.27,North,349,1.0,1.0,25,0.00,,,0.00,Wunderground v.1.15,2013-01-23 17:42:00,
2013-01-23 12:47:00,29.3,-2.2,30.27,East,81,1.0,2.0,25,0.00,,,0.00,Wunderground v.1.15,2013-01-23 17:47:00,
2013-01-23 12:53:00,29.7,-1.9,30.26,East,79,1.0,1.0,25,0.00,,,0.00,Wunderground v.1.15,2013-01-23 17:53:00,
2013-01-23 12:59:00,30.4,-2.2,30.26,NNE,12,1.0,4.0,24,0.00,,,0.00,Wunderground v.1.15,2013-01-23 17:59:00,
2013-01-23 13:05:00,30.5,-1.2,30.26,ENE,62,1.0,2.0,25,0.00,,,0.00,Wunderground v.1.15,2013-01-23 18:05:00,
2013-01-23 13:11:00,30.3,-2.2,30.26,North,352,1.0,1.0,24,0.00,,,0.00,Wunderground v.1.15,2013-01-23 18:11:00,
2013-01-23 13:16:00,30.3,-0.5,30.25,North,354,1.0,1.0,26,0.00,,,0.00,Wunderground v.1.15,2013-01-23 18:16:00,
2013-01-23 13:22:00,30.5,0.4,30.25,WNW,287,0.0,1.0,27,0.00,,,0.00,Wunderground v.1.15,2013-01-23 18:22:00,
2013-01-23 13:28:00,30.6,0.5,30.24,North,350,1.0,2.0,27,0.00,,,0.00,Wunderground v.1.15,2013-01-23 18:28:00,
2013-01-23 13:34:00,30.6,-1.1,30.23,NNE,24,0.0,2.0,25,0.00,,,0.00,Wunderground v.1.15,2013-01-23 18:34:00,
2013-01-23 13:40:00,30.6,-1.1,30.23,West,262,1.0,1.0,25,0.00,,,0.00,Wunderground v.1.15,2013-01-23 18:40:00,
2013-01-23 13:46:00,30.5,-1.2,30.23,NW,312,1.0,1.0,25,0.00,,,0.00,Wunderground v.1.15,2013-01-23 18:46:00,
2013-01-23 13:51:00,31.0,0.9,30.23,SSE,156,0.0,1.0,27,0.00,,,0.00,Wunderground v.1.15,2013-01-23 18:51:00,
2013-01-23 13:57:00,31.9,-1.8,30.23,East,91,1.0,5.0,23,0.00,,,0.00,Wunderground v.1.15,2013-01-23 18:57:00,
2013-01-23 14:02:00,32.4,-1.4,30.22,NE,39,1.0,4.0,23,0.00,,,0.00,Wunderground v.1.15,2013-01-23 19:02:00,
2013-01-23 14:07:00,32.9,-0.9,30.22,West,261,1.0,4.0,23,0.00,,,0.00,Wunderground v.1.15,2013-01-23 19:07:00,
2013-01-23 14:13:00,33.1,-1.7,30.22,NNE,23,1.0,4.0,22,0.00,,,0.00,Wunderground v.1.15,2013-01-23 19:13:00,
2013-01-23 14:19:00,33.1,-1.7,30.22,NNE,22,1.0,4.0,22,0.00,,,0.00,Wunderground v.1.15,2013-01-23 19:19:00,
2013-01-23 14:24:00,33.5,-0.4,30.22,West,269,1.0,4.0,23,0.00,,,0.00,Wunderground v.1.15,2013-01-23 19:24:00,
2013-01-23 14:29:00,33.7,-1.2,30.22,West,268,1.0,4.0,22,0.00,,,0.00,Wunderground v.1.15,2013-01-23 19:29:00,
2013-01-23 14:35:00,33.8,-0.2,30.22,ENE,66,1.0,4.0,23,0.00,,,0.00,Wunderground v.1.15,2013-01-23 19:35:00,
2013-01-23 14:41:00,33.9,-0.1,30.22,ENE,63,1.0,1.0,23,0.00,,,0.00,Wunderground v.1.15,2013-01-23 19:41:00,
2013-01-23 14:46:00,34.0,0.0,30.22,West,263,1.0,4.0,23,0.00,,,0.00,Wunderground v.1.15,2013-01-23 19:46:00,
2013-01-23 14:52:00,34.1,1.0,30.22,WSW,250,1.0,1.0,24,0.00,,,0.00,Wunderground v.1.15,2013-01-23 19:52:00,
2013-01-23 14:58:00,33.9,-1.0,30.22,NE,38,1.0,5.0,22,0.00,,,0.00,Wunderground v.1.15,2013-01-23 19:58:00,
2013-01-23 15:03:00,33.8,-0.2,30.22,West,275,1.0,2.0,23,0.00,,,0.00,Wunderground v.1.15,2013-01-23 20:03:00,
2013-01-23 15:09:00,33.3,-0.6,30.22,WSW,248,0.0,2.0,23,0.00,,,0.00,Wunderground v.1.15,2013-01-23 20:09:00,
2013-01-23 15:14:00,33.2,0.2,30.22,WSW,248,0.0,1.0,24,0.00,,,0.00,Wunderground v.1.15,2013-01-23 20:14:00,
2013-01-23 15:19:00,33.1,0.2,30.22,WSW,254,1.0,5.0,24,0.00,,,0.00,Wunderground v.1.15,2013-01-23 20:19:00,
2013-01-23 15:24:00,33.2,0.2,30.22,West,266,1.0,2.0,24,0.00,,,0.00,Wunderground v.1.15,2013-01-23 20:24:00,
2013-01-23 15:30:00,32.9,-0.9,30.21,North,360,0.0,0.0,23,0.00,,,0.00,Wunderground v.1.15,2013-01-23 20:30:00,
2013-01-23 15:35:00,32.9,0.0,30.21,WSW,247,1.0,4.0,24,0.00,,,0.00,Wunderground v.1.15,2013-01-23 20:35:00,
2013-01-23 15:41:00,32.8,-0.1,30.21,NNW,341,1.0,1.0,24,0.00,,,0.00,Wunderground v.1.15,2013-01-23 20:41:00,
2013-01-23 15:47:00,33.0,0.9,30.21,NNW,337,0.0,1.0,25,0.00,,,0.00,Wunderground v.1.15,2013-01-23 20:47:00,
2013-01-23 15:53:00,32.8,0.8,30.21,West,279,0.0,0.0,25,0.00,,,0.00,Wunderground v.1.15,2013-01-23 20:53:00,
2013-01-23 15:58:00,32.8,-0.1,30.21,West,261,1.0,1.0,24,0.00,,,0.00,Wunderground v.1.15,2013-01-23 20:58:00,
2013-01-23 16:03:00,32.7,0.7,30.20,SSW,196,0.0,1.0,25,0.00,,,0.00,Wunderground v.1.15,2013-01-23 21:03:00,
2013-01-23 16:09:00,32.7,-0.2,30.20,ENE,72,0.0,1.0,24,0.00,,,0.00,Wunderground v.1.15,2013-01-23 21:09:00,
2013-01-23 16:15:00,32.3,1.2,30.20,NE,37,1.0,4.0,26,0.00,,,0.00,Wunderground v.1.15,2013-01-23 21:15:00,
2013-01-23 16:20:00,32.1,0.2,30.20,NW,310,1.0,1.0,25,0.00,,,0.00,Wunderground v.1.15,2013-01-23 21:20:00,
2013-01-23 16:26:00,32.0,1.7,30.20,WNW,283,0.0,1.0,27,0.00,,,0.00,Wunderground v.1.15,2013-01-23 21:26:00,
2013-01-23 16:31:00,31.9,0.8,30.20,West,266,0.0,4.0,26,0.00,,,0.00,Wunderground v.1.15,2013-01-23 21:31:00,
2013-01-23 16:36:00,31.8,1.6,30.20,West,264,1.0,4.0,27,0.00,,,0.00,Wunderground v.1.15,2013-01-23 21:36:00,
2013-01-23 16:41:00,31.7,3.0,30.20,NW,321,0.0,1.0,29,0.00,,,0.00,Wunderground v.1.15,2013-01-23 21:41:00,
2013-01-23 16:46:00,31.5,1.3,30.20,North,349,0.0,1.0,27,0.00,,,0.00,Wunderground v.1.15,2013-01-23 21:46:00,
2013-01-23 16:52:00,31.4,1.2,30.20,NNE,26,0.0,0.0,27,0.00,,,0.00,Wunderground v.1.15,2013-01-23 21:52:00,
2013-01-23 16:58:00,31.3,1.9,30.19,West,259,0.0,1.0,28,0.00,,,0.00,Wunderground v.1.15,2013-01-23 21:58:00,
2013-01-23 17:03:00,31.2,1.8,30.19,West,259,0.0,0.0,28,0.00,,,0.00,Wunderground v.1.15,2013-01-23 22:03:00,
2013-01-23 17:09:00,31.0,0.1,30.19,NW,318,0.0,0.0,26,0.00,,,0.00,Wunderground v.1.15,2013-01-23 22:09:00,
2013-01-23 17:15:00,30.9,0.8,30.19,NW,318,0.0,0.0,27,0.00,,,0.00,Wunderground v.1.15,2013-01-23 22:15:00,
2013-01-23 17:20:00,30.7,1.4,30.19,NW,318,0.0,0.0,28,0.00,,,0.00,Wunderground v.1.15,2013-01-23 22:20:00,
2013-01-23 17:26:00,30.5,2.0,30.19,NW,318,0.0,0.0,29,0.00,,,0.00,Wunderground v.1.15,2013-01-23 22:26:00,
2013-01-23 17:32:00,30.3,2.5,30.19,NW,318,0.0,0.0,30,0.00,,,0.00,Wunderground v.1.15,2013-01-23 22:32:00,
2013-01-23 17:37:00,30.2,1.7,30.19,NW,318,0.0,0.0,29,0.00,,,0.00,Wunderground v.1.15,2013-01-23 22:37:00,
2013-01-23 17:43:00,29.9,2.9,30.19,NW,318,0.0,0.0,31,0.00,,,0.00,Wunderground v.1.15,2013-01-23 22:43:00,
2013-01-23 17:49:00,29.7,2.7,30.19,NW,318,0.0,0.0,31,0.00,,,0.00,Wunderground v.1.15,2013-01-23 22:49:00,
2013-01-23 17:55:00,29.4,3.1,30.18,NW,318,0.0,0.0,32,0.00,,,0.00,Wunderground v.1.15,2013-01-23 22:55:00,
2013-01-23 18:00:00,29.1,2.2,30.18,NW,318,0.0,0.0,31,0.00,,,0.00,Wunderground v.1.15,2013-01-23 23:00:00,
2013-01-23 18:06:00,28.9,3.4,30.18,NW,318,0.0,0.0,33,0.00,,,0.00,Wunderground v.1.15,2013-01-23 23:06:00,
2013-01-23 18:12:00,28.7,3.2,30.18,NW,318,0.0,0.0,33,0.00,,,0.00,Wunderground v.1.15,2013-01-23 23:12:00,
2013-01-23 18:18:00,28.4,4.8,30.18,NW,318,0.0,0.0,36,0.00,,,0.00,Wunderground v.1.15,2013-01-23 23:18:00,
2013-01-23 18:23:00,28.4,4.8,30.18,NW,318,0.0,0.0,36,0.00,,,0.00,Wunderground v.1.15,2013-01-23 23:23:00,
2013-01-23 18:29:00,28.3,6.5,30.18,NW,318,0.0,0.0,39,0.00,,,0.00,Wunderground v.1.15,2013-01-23 23:29:00,
2013-01-23 18:35:00,28.3,8.1,30.18,NW,318,0.0,0.0,42,0.00,,,0.00,Wunderground v.1.15,2013-01-23 23:35:00,
2013-01-23 18:41:00,28.0,6.8,30.17,NW,318,0.0,0.0,40,0.00,,,0.00,Wunderground v.1.15,2013-01-23 23:41:00,
2013-01-23 18:47:00,27.9,7.2,30.18,NW,318,0.0,0.0,41,0.00,,,0.00,Wunderground v.1.15,2013-01-23 23:47:00,
2013-01-23 18:53:00,27.8,6.6,30.18,NW,318,0.0,0.0,40,0.00,,,0.00,Wunderground v.1.15,2013-01-23 23:53:00,
2013-01-23 18:58:00,27.9,7.7,30.17,NW,318,0.0,0.0,42,0.00,,,0.00,Wunderground v.1.15,2013-01-23 23:58:00,
2013-01-23 19:03:00,28.0,8.9,30.17,NW,318,0.0,0.0,44,0.00,,,0.00,Wunderground v.1.15,2013-01-24 00:03:00,
2013-01-23 19:09:00,28.0,9.4,30.17,NW,318,0.0,0.0,45,0.00,,,0.00,Wunderground v.1.15,2013-01-24 00:09:00,
2013-01-23 19:14:00,28.0,8.4,30.16,NW,318,0.0,0.0,43,0.00,,,0.00,Wunderground v.1.15,2013-01-24 00:14:00,
2013-01-23 19:19:00,28.1,8.4,30.16,NW,318,0.0,0.0,43,0.00,,,0.00,Wunderground v.1.15,2013-01-24 00:19:00,
2013-01-23 19:25:00,28.2,7.5,30.16,NW,318,0.0,0.0,41,0.00,,,0.00,Wunderground v.1.15,2013-01-24 00:25:00,
2013-01-23 19:31:00,28.4,8.2,30.16,NW,318,0.0,0.0,42,0.00,,,0.00,Wunderground v.1.15,2013-01-24 00:31:00,
2013-01-23 19:36:00,28.4,8.2,30.15,NW,318,0.0,0.0,42,0.00,,,0.00,Wunderground v.1.15,2013-01-24 00:36:00,
2013-01-23 19:42:00,28.5,9.8,30.15,NW,318,0.0,0.0,45,0.00,,,0.00,Wunderground v.1.15,2013-01-24 00:42:00,
2013-01-23 19:48:00,28.5,8.8,30.15,NW,318,0.0,0.0,43,0.00,,,0.00,Wunderground v.1.15,2013-01-24 00:48:00,
2013-01-23 19:54:00,28.6,10.9,30.15,NW,318,0.0,0.0,47,0.00,,,0.00,Wunderground v.1.15,2013-01-24 00:54:00,
2013-01-23 20:00:00,28.6,10.4,30.15,NW,318,0.0,0.0,46,0.00,,,0.00,Wunderground v.1.15,2013-01-24 01:00:00,
2013-01-23 20:05:00,28.6,11.4,30.15,NW,318,0.0,0.0,48,0.00,,,0.00,Wunderground v.1.15,2013-01-24 01:05:00,
2013-01-23 20:11:00,28.6,10.4,30.15,NW,318,0.0,0.0,46,0.00,,,0.00,Wunderground v.1.15,2013-01-24 01:11:00,
2013-01-23 20:17:00,28.7,9.0,30.14,NW,318,0.0,0.0,43,0.00,,,0.00,Wunderground v.1.15,2013-01-24 01:17:00,
2013-01-23 20:22:00,28.7,9.5,30.15,NW,318,0.0,0.0,44,0.00,,,0.00,Wunderground v.1.15,2013-01-24 01:22:00,
2013-01-23 20:28:00,28.7,9.5,30.15,NW,318,0.0,0.0,44,0.00,,,0.00,Wunderground v.1.15,2013-01-24 01:28:00,
2013-01-23 20:33:00,28.8,9.6,30.14,NW,318,0.0,0.0,44,0.00,,,0.00,Wunderground v.1.15,2013-01-24 01:33:00,
2013-01-23 20:39:00,28.8,8.0,30.14,NW,318,0.0,0.0,41,0.00,,,0.00,Wunderground v.1.15,2013-01-24 01:39:00,
2013-01-23 20:44:00,28.8,8.0,30.14,NW,318,0.0,0.0,41,0.00,,,0.00,Wunderground v.1.15,2013-01-24 01:44:00,
2013-01-23 20:49:00,28.9,5.8,30.14,NW,318,0.0,0.0,37,0.00,,,0.00,Wunderground v.1.15,2013-01-24 01:49:00,
2013-01-23 20:55:00,29.0,7.7,30.14,NW,318,0.0,0.0,40,0.00,,,0.00,Wunderground v.1.15,2013-01-24 01:55:00,
2013-01-23 21:00:00,29.1,8.3,30.14,NW,318,0.0,0.0,41,0.00,,,0.00,Wunderground v.1.15,2013-01-24 02:00:00,
2013-01-23 21:06:00,29.1,7.7,30.14,NW,318,0.0,0.0,40,0.00,,,0.00,Wunderground v.1.15,2013-01-24 02:06:00,
2013-01-23 21:12:00,29.2,10.0,30.14,NW,318,0.0,0.0,44,0.00,,,0.00,Wunderground v.1.15,2013-01-24 02:12:00,
2013-01-23 21:17:00,29.2,8.9,30.14,NW,318,0.0,0.0,42,0.00,,,0.00,Wunderground v.1.15,2013-01-24 02:17:00,
2013-01-23 21:23:00,29.3,9.0,30.14,NW,318,0.0,0.0,42,0.00,,,0.00,Wunderground v.1.15,2013-01-24 02:23:00,
2013-01-23 21:29:00,29.2,8.4,30.14,NW,318,0.0,0.0,41,0.00,,,0.00,Wunderground v.1.15,2013-01-24 02:29:00,
2013-01-23 21:35:00,29.3,8.5,30.14,NW,318,0.0,0.0,41,0.00,,,0.00,Wunderground v.1.15,2013-01-24 02:35:00,
2013-01-23 21:41:00,29.4,8.0,30.14,NW,318,0.0,0.0,40,0.00,,,0.00,Wunderground v.1.15,2013-01-24 02:41:00,
2013-01-23 21:47:00,29.5,8.7,30.13,NW,318,0.0,0.0,41,0.00,,,0.00,Wunderground v.1.15,2013-01-24 02:47:00,
2013-01-23 21:52:00,29.5,9.7,30.14,NW,318,0.0,0.0,43,0.00,,,0.00,Wunderground v.1.15,2013-01-24 02:52:00,
2013-01-23 21:58:00,29.6,9.8,30.13,NW,318,0.0,0.0,43,0.00,,,0.00,Wunderground v.1.15,2013-01-24 02:58:00,
2013-01-23 22:03:00,29.6,8.7,30.13,NW,318,0.0,0.0,41,0.00,,,0.00,Wunderground v.1.15,2013-01-24 03:03:00,
2013-01-23 22:10:00,29.7,9.9,30.12,NW,318,0.0,0.0,43,0.00,,,0.00,Wunderground v.1.15,2013-01-24 03:10:00,
2013-01-23 22:15:00,29.7,9.9,30.12,NW,318,0.0,0.0,43,0.00,,,0.00,Wunderground v.1.15,2013-01-24 03:15:00,
2013-01-23 22:21:00,29.9,11.1,30.12,NW,318,0.0,0.0,45,0.00,,,0.00,Wunderground v.1.15,2013-01-24 03:21:00,
2013-01-23 22:26:00,29.9,10.1,30.12,NW,318,0.0,0.0,43,0.00,,,0.00,Wunderground v.1.15,2013-01-24 03:26:00,
2013-01-23 22:32:00,29.9,10.6,30.11,NW,318,0.0,0.0,44,0.00,,,0.00,Wunderground v.1.15,2013-01-24 03:32:00,
2013-01-23 22:38:00,29.9,10.1,30.11,NW,318,0.0,0.0,43,0.00,,,0.00,Wunderground v.1.15,2013-01-24 03:38:00,
2013-01-23 22:44:00,29.9,11.1,30.11,NW,318,0.0,0.0,45,0.00,,,0.00,Wunderground v.1.15,2013-01-24 03:44:00,
2013-01-23 22:50:00,29.9,12.1,30.11,NW,318,0.0,0.0,47,0.00,,,0.00,Wunderground v.1.15,2013-01-24 03:50:00,
2013-01-23 22:55:00,29.9,11.1,30.11,NW,318,0.0,0.0,45,0.00,,,0.00,Wunderground v.1.15,2013-01-24 03:55:00,
2013-01-23 23:00:00,29.9,10.1,30.11,NW,318,0.0,0.0,43,0.00,,,0.00,Wunderground v.1.15,2013-01-24 04:00:00,
2013-01-23 23:06:00,29.9,10.6,30.10,NW,318,0.0,0.0,44,0.00,,,0.00,Wunderground v.1.15,2013-01-24 04:06:00,
2013-01-23 23:12:00,29.9,10.6,30.10,NW,318,0.0,0.0,44,0.00,,,0.00,Wunderground v.1.15,2013-01-24 04:12:00,
2013-01-23 23:18:00,29.9,10.6,30.10,North,349,0.0,0.0,44,0.00,,,0.00,Wunderground v.1.15,2013-01-24 04:18:00,
2013-01-23 23:23:00,29.9,10.6,30.11,North,349,0.0,0.0,44,0.00,,,0.00,Wunderground v.1.15,2013-01-24 04:23:00,
2013-01-23 23:29:00,29.9,9.6,30.10,North,349,0.0,0.0,42,0.00,,,0.00,Wunderground v.1.15,2013-01-24 04:29:00,
2013-01-23 23:35:00,29.8,10.0,30.10,North,349,0.0,0.0,43,0.00,,,0.00,Wunderground v.1.15,2013-01-24 04:35:00,
2013-01-23 23:41:00,29.9,9.6,30.10,North,349,0.0,0.0,42,0.00,,,0.00,Wunderground v.1.15,2013-01-24 04:41:00,
2013-01-23 23:47:00,29.8,10.5,30.09,North,349,0.0,0.0,44,0.00,,,0.00,Wunderground v.1.15,2013-01-24 04:47:00,
2013-01-23 23:53:00,29.8,11.0,30.09,North,349,0.0,0.0,45,0.00,,,0.00,Wunderground v.1.15,2013-01-24 04:53:00,
2013-01-23 23:59:00,29.8,11.0,30.09,North,349,0.0,0.0,45,0.00,,,0.00,Wunderground v.1.15,2013-01-24 04:59:00,